Cardiff Trader — 9HA3356 — position and weather

sailwx.info

Track history (hours):
 
Tides and Currents Weather Stations Pressure Air Temp Water Temp Dewpoint Dewpoint Depression Visibility Wind Speed Wind Dir Waves Ship Positions

Cardiff Trader

Last reported at 2017-Oct-19 21:44 UTC. Time now 2017-Oct-19 22:05 UTC.
Position N 33°45' W 118°16'.

Length 208 m; draft 7.9 m.

Type: Ship (hazmat cat A). MMSI: 229469000.

Date/timePositionNaut miles runAvg speedWind from/ knotsBaromVisibWave heightAir tempDewpointWater temp
2017-Oct-19 21:44N 33°45' W 118°16'0 0.0
2017-Oct-19 21:20N 33°45' W 118°16'0 0.0
2017-Oct-19 20:56N 33°45' W 118°16'0 0.0
2017-Oct-19 17:37N 33°45' W 118°16'2 0.5
2017-Oct-19 13:33N 33°43' W 118°16'0 6.7
2017-Oct-19 13:30N 33°43' W 118°16'3 5.9
2017-Oct-19 12:55N 33°41' W 118°12'2 1.1
2017-Oct-19 11:19N 33°43' W 118°12'0 0.0
2017-Oct-19 10:43N 33°43' W 118°12'0 0.0
2017-Oct-19 09:46N 33°43' W 118°12'0 0.0
2017-Oct-19 09:03N 33°43' W 118°12'0 0.0
2017-Oct-19 08:57N 33°43' W 118°12'0 0.1
2017-Oct-19 08:09N 33°43' W 118°12'0 0.1
2017-Oct-19 07:57N 33°43' W 118°12'0 0.0
2017-Oct-19 05:20N 33°43' W 118°12'0 0.0
2017-Oct-19 03:44N 33°43' W 118°12'0 0.1
2017-Oct-19 03:25N 33°43' W 118°12'0 0.1
2017-Oct-19 02:49N 33°43' W 118°12'0 0.1
2017-Oct-19 01:48N 33°43' W 118°12'0 0.1
2017-Oct-19 01:21N 33°43' W 118°12'0 0.0
2017-Oct-19 00:57N 33°43' W 118°12'0 0.0
2017-Oct-18 23:17N 33°43' W 118°12'0 0.2
2017-Oct-18 22:59N 33°43' W 118°12'2 3.7
2017-Oct-18 22:30N 33°41' W 118°11'4 8.0
2017-Oct-18 22:00N 33°37' W 118°10'611.3
2017-Oct-18 21:30N 33°32' W 118°08'611.3
2017-Oct-18 20:59N 33°26' W 118°06'811.7
2017-Oct-18 20:19N 33°19' W 118°03'414.1
2017-Oct-18 20:00N 33°15' W 118°01'714.2
2017-Oct-18 19:30N 33°08' W 117°57'612.2
2017-Oct-18 19:01N 33°03' W 117°54'510.7
2017-Oct-18 18:31N 32°58' W 117°51'815.7
2017-Oct-18 18:00N 32°51' W 117°48'816.0
2017-Oct-18 17:30N 32°43' W 117°44'816.6
2017-Oct-18 17:00N 32°36' W 117°40'816.8
2017-Oct-18 16:31N 32°28' W 117°37'816.9
2017-Oct-18 16:00N 32°20' W 117°33'7416.0
2017-Oct-18 11:24N 31°10' W 117°06'716.3
2017-Oct-18 10:58N 31°03' W 117°04'816.4
2017-Oct-18 10:30N 30°56' W 117°01'  
Track history (hours):
 
Tides and Currents Weather Stations Pressure Air Temp Water Temp Dewpoint Dewpoint Depression Visibility Wind Speed Wind Dir Waves Ship Positions

Cardiff Trader

Last reported at 2017-Oct-19 21:44 UTC. Time now 2017-Oct-19 22:05 UTC.
Position N 33°45' W 118°16'.

Length 208 m; draft 7.9 m.

Type: Ship (hazmat cat A). MMSI: 229469000.

Date/timePositionNaut miles runAvg speedWind from/ knotsBaromVisibWave heightAir tempDewpointWater temp
2017-Oct-19 21:44N 33°45' W 118°16'0 0.0
2017-Oct-19 21:20N 33°45' W 118°16'0 0.0
2017-Oct-19 20:56N 33°45' W 118°16'0 0.0
2017-Oct-19 17:37N 33°45' W 118°16'2 0.5
2017-Oct-19 13:33N 33°43' W 118°16'0 6.7
2017-Oct-19 13:30N 33°43' W 118°16'3 5.9
2017-Oct-19 12:55N 33°41' W 118°12'2 1.1
2017-Oct-19 11:19N 33°43' W 118°12'0 0.0
2017-Oct-19 10:43N 33°43' W 118°12'0 0.0
2017-Oct-19 09:46N 33°43' W 118°12'0 0.0
2017-Oct-19 09:03N 33°43' W 118°12'0 0.0
2017-Oct-19 08:57N 33°43' W 118°12'0 0.1
2017-Oct-19 08:09N 33°43' W 118°12'0 0.1
2017-Oct-19 07:57N 33°43' W 118°12'0 0.0
2017-Oct-19 05:20N 33°43' W 118°12'0 0.0
2017-Oct-19 03:44N 33°43' W 118°12'0 0.1
2017-Oct-19 03:25N 33°43' W 118°12'0 0.1
2017-Oct-19 02:49N 33°43' W 118°12'0 0.1
2017-Oct-19 01:48N 33°43' W 118°12'0 0.1
2017-Oct-19 01:21N 33°43' W 118°12'0 0.0
2017-Oct-19 00:57N 33°43' W 118°12'0 0.0
2017-Oct-18 23:17N 33°43' W 118°12'0 0.2
2017-Oct-18 22:59N 33°43' W 118°12'2 3.7
2017-Oct-18 22:30N 33°41' W 118°11'4 8.0
2017-Oct-18 22:00N 33°37' W 118°10'611.3
2017-Oct-18 21:30N 33°32' W 118°08'611.3
2017-Oct-18 20:59N 33°26' W 118°06'811.7
2017-Oct-18 20:19N 33°19' W 118°03'414.1
2017-Oct-18 20:00N 33°15' W 118°01'714.2
2017-Oct-18 19:30N 33°08' W 117°57'612.2
2017-Oct-18 19:01N 33°03' W 117°54'510.7
2017-Oct-18 18:31N 32°58' W 117°51'815.7
2017-Oct-18 18:00N 32°51' W 117°48'816.0
2017-Oct-18 17:30N 32°43' W 117°44'816.6
2017-Oct-18 17:00N 32°36' W 117°40'816.8
2017-Oct-18 16:31N 32°28' W 117°37'816.9
2017-Oct-18 16:00N 32°20' W 117°33'7416.0
2017-Oct-18 11:24N 31°10' W 117°06'716.3
2017-Oct-18 10:58N 31°03' W 117°04'816.4
2017-Oct-18 10:30N 30°56' W 117°01'  

Dump ship's entire track history